Time;durP1;ratioP1;P1;durP2;ratioP2;P2;SDS_P1;SDS_P2;PMS_P1;PMS_P2;Temp;Humidity;BMP_temperature;BMP_pressure;BME280_temperature;BME280_humidity;BME280_pressure;Samples;Min_cycle;Max_cycle;Signal;HPM_P1;HPM_P2
2022/07/19 00:00:10;;;;;;;8.47;3.43;;;;;;;23.56;63.50;99598.00;5065058;28;20075;-58
2022/07/19 00:02:41;;;;;;;10.83;3.00;;;;;;;23.63;63.54;99600.03;5065259;28;20196;-59
2022/07/19 00:05:13;;;;;;;13.70;3.43;;;;;;;23.78;63.18;99599.78;5065086;28;20348;-58
2022/07/19 00:07:45;;;;;;;4.13;3.00;;;;;;;23.80;61.30;99608.53;5064794;28;20041;-59
2022/07/19 00:10:17;;;;;;;4.97;2.70;;;;;;;23.34;59.46;99558.88;5065019;28;20333;-61
2022/07/19 00:12:50;;;;;;;4.90;2.40;;;;;;;23.68;60.78;99605.00;5064588;28;20411;-60
2022/07/19 00:15:20;;;;;;;8.40;3.03;;;;;;;23.90;62.70;99598.78;5065087;28;20060;-60
2022/07/19 00:17:51;;;;;;;5.87;2.67;;;;;;;24.17;62.64;99610.84;5065388;28;20056;-59
2022/07/19 00:20:24;;;;;;;22.57;3.83;;;;;;;24.36;61.22;99610.97;5065500;28;20256;-59
2022/07/19 00:22:54;;;;;;;5.43;3.03;;;;;;;24.48;61.24;99607.28;5065306;28;20260;-58
2022/07/19 00:25:25;;;;;;;4.83;2.67;;;;;;;24.50;60.85;99610.69;5064821;28;20113;-60
2022/07/19 00:27:57;;;;;;;13.40;3.10;;;;;;;24.42;59.60;99602.44;5064990;28;20199;-60
2022/07/19 00:30:28;;;;;;;10.53;2.97;;;;;;;24.66;60.95;99601.34;5064503;28;20087;-61
2022/07/19 00:32:59;;;;;;;17.20;3.70;;;;;;;24.78;60.17;99600.31;5064931;28;20104;-60
2022/07/19 00:35:29;;;;;;;5.07;2.77;;;;;;;24.94;60.06;99603.34;5064936;28;20056;-58
2022/07/19 00:38:06;;;;;;;6.47;2.90;;;;;;;24.93;58.83;99603.47;5065187;28;20043;-59
2022/07/19 00:40:37;;;;;;;5.50;3.10;;;;;;;24.82;58.75;99601.75;5064595;28;20060;-59
2022/07/19 00:43:11;;;;;;;6.97;2.93;;;;;;;24.82;57.05;99593.72;5064471;28;20115;-60
2022/07/19 00:45:41;;;;;;;5.93;3.17;;;;;;;24.67;58.97;99608.41;5065074;28;20150;-59
2022/07/19 00:48:12;;;;;;;7.97;3.20;;;;;;;24.77;58.96;99598.63;5065287;28;20116;-58
2022/07/19 00:50:42;;;;;;;3.70;2.83;;;;;;;24.84;58.87;99605.13;5064214;28;20048;-59
2022/07/19 00:53:15;;;;;;;4.73;2.93;;;;;;;24.61;58.15;99609.78;5064572;28;20049;-60
2022/07/19 00:55:47;;;;;;;8.13;3.30;;;;;;;24.48;59.98;99615.28;5064042;28;20055;-60
2022/07/19 00:58:20;;;;;;;5.70;2.93;;;;;;;24.66;60.51;99612.03;5064438;28;20092;-59
2022/07/19 01:00:50;;;;;;;17.10;3.27;;;;;;;24.83;59.41;99608.75;5064610;28;20057;-60
2022/07/19 01:03:22;;;;;;;5.20;3.07;;;;;;;24.81;58.88;99605.41;5065053;28;20053;-60
2022/07/19 01:05:52;;;;;;;6.23;3.30;;;;;;;25.01;59.64;99609.03;5064914;28;20056;-60
2022/07/19 01:08:23;;;;;;;5.70;3.47;;;;;;;24.87;58.28;99578.13;5065857;28;20060;-61
2022/07/19 01:10:53;;;;;;;7.53;3.23;;;;;;;25.22;58.79;99598.28;5065091;28;20053;-59
2022/07/19 01:13:26;;;;;;;18.80;3.97;;;;;;;25.42;59.55;99599.22;5064763;28;20144;-59
2022/07/19 01:15:56;;;;;;;7.27;3.47;;;;;;;25.62;59.26;99602.78;5064620;28;20119;-59
2022/07/19 01:18:27;;;;;;;4.57;3.30;;;;;;;25.58;57.91;99601.34;5064551;28;20070;-59
2022/07/19 01:20:59;;;;;;;5.63;3.50;;;;;;;25.37;57.08;99570.19;5064770;28;20071;-60
2022/07/19 01:23:32;;;;;;;20.60;4.10;;;;;;;25.66;57.81;99589.94;5064043;28;20056;-59
2022/07/19 01:26:02;;;;;;;5.53;3.17;;;;;;;25.92;58.12;99603.69;5067712;28;20091;-60
2022/07/19 01:28:33;;;;;;;7.00;3.63;;;;;;;26.00;56.70;99601.16;5067748;28;20225;-59
2022/07/19 01:31:03;;;;;;;8.17;3.37;;;;;;;26.06;57.12;99603.28;5068287;28;20344;-60
2022/07/19 01:33:39;;;;;;;6.40;3.33;;;;;;;25.96;55.04;99602.41;5069522;28;20080;-61
2022/07/19 01:36:09;;;;;;;7.73;3.43;;;;;;;25.87;57.07;99595.25;5068022;28;20044;-58
2022/07/19 01:38:42;;;;;;;6.13;3.10;;;;;;;25.82;55.66;99596.47;5067738;28;20111;-59
2022/07/19 01:41:12;;;;;;;9.67;3.23;;;;;;;25.74;57.16;99604.34;5067225;28;20215;-61
2022/07/19 01:43:44;;;;;;;6.57;3.73;;;;;;;25.67;57.11;99597.84;5067849;28;20045;-60
2022/07/19 01:46:15;;;;;;;6.53;3.40;;;;;;;25.53;58.26;99553.59;5067844;28;20051;-60
2022/07/19 01:48:48;;;;;;;9.50;3.70;;;;;;;26.08;58.65;99590.59;5070557;28;20052;-59
2022/07/19 01:51:49;;;;;;;7.10;3.00;;;;;;;26.05;56.09;99596.22;5068748;28;20059;-59
2022/07/19 01:54:21;;;;;;;7.20;3.50;;;;;;;25.64;57.35;99598.13;5067317;28;20065;-58
2022/07/19 01:56:52;;;;;;;6.67;3.50;;;;;;;25.65;55.65;99589.13;5067859;28;20078;-60
2022/07/19 01:59:22;;;;;;;7.50;3.47;;;;;;;25.79;56.83;99588.72;5067690;28;20176;-58
2022/07/19 02:01:53;;;;;;;9.03;3.80;;;;;;;26.03;57.22;99587.47;5067607;28;20168;-60
2022/07/19 02:04:23;;;;;;;6.63;3.60;;;;;;;26.16;56.69;99582.72;5067759;28;20333;-58
2022/07/19 02:06:54;;;;;;;8.07;3.30;;;;;;;26.12;55.61;99575.94;5067448;28;20113;-58
2022/07/19 02:09:27;;;;;;;7.20;3.30;;;;;;;26.03;56.75;99574.09;5067582;28;20111;-57
2022/07/19 02:11:57;;;;;;;7.00;3.63;;;;;;;26.12;56.54;99570.59;5066271;28;20199;-59
2022/07/19 02:14:28;;;;;;;7.83;3.77;;;;;;;26.29;55.68;99576.22;5066848;28;20057;-59
2022/07/19 02:16:58;;;;;;;7.50;3.33;;;;;;;26.27;55.26;99572.84;5067155;28;20057;-58
2022/07/19 02:19:29;;;;;;;10.10;3.37;;;;;;;26.42;56.29;99576.75;5067238;28;20045;-57
2022/07/19 02:22:00;;;;;;;7.83;3.77;;;;;;;26.53;55.70;99568.56;5066785;28;20116;-57
2022/07/19 02:24:32;;;;;;;5.20;3.20;;;;;;;26.56;55.41;99557.59;5066979;28;20053;-57
2022/07/19 02:27:02;;;;;;;6.10;3.70;;;;;;;26.61;55.88;99554.44;5066838;28;20348;-58
2022/07/19 02:29:33;;;;;;;7.03;3.40;;;;;;;26.53;55.68;99552.50;5067203;28;20052;-57
2022/07/19 02:32:03;;;;;;;6.23;3.37;;;;;;;26.58;56.46;99554.75;5066862;28;20221;-57
2022/07/19 02:34:34;;;;;;;5.57;3.80;;;;;;;26.43;55.50;99562.38;5066900;28;20044;-58
2022/07/19 02:37:06;;;;;;;8.10;3.70;;;;;;;26.17;54.24;99552.25;5065799;28;20048;-61
2022/07/19 02:39:38;;;;;;;7.50;3.60;;;;;;;25.98;56.49;99554.94;5067044;28;20112;-58
2022/07/19 02:42:08;;;;;;;16.70;4.20;;;;;;;25.83;55.87;99543.78;5067014;28;20092;-58
2022/07/19 02:44:39;;;;;;;11.93;3.70;;;;;;;25.82;56.48;99537.59;5066649;28;20075;-57
2022/07/19 02:47:10;;;;;;;8.80;3.80;;;;;;;26.19;57.51;99549.44;5066586;28;20124;-58
2022/07/19 02:49:40;;;;;;;8.83;3.33;;;;;;;26.53;56.33;99557.84;5066250;28;20557;-58
2022/07/19 02:52:11;;;;;;;26.20;4.90;;;;;;;26.45;56.12;99550.50;5066522;28;20053;-58
2022/07/19 02:54:43;;;;;;;6.80;3.17;;;;;;;26.11;55.23;99552.84;5066871;28;20071;-58
2022/07/19 02:57:13;;;;;;;7.87;3.77;;;;;;;26.09;56.45;99554.81;5066312;28;20217;-60
2022/07/19 02:59:44;;;;;;;6.57;3.50;;;;;;;26.44;58.47;99553.34;5066474;28;20053;-58
2022/07/19 03:02:15;;;;;;;7.50;3.63;;;;;;;26.37;55.96;99562.94;5066061;28;20081;-58
2022/07/19 03:04:45;;;;;;;18.33;4.03;;;;;;;26.31;55.57;99550.13;5066047;28;20059;-59
2022/07/19 03:07:16;;;;;;;28.40;4.33;;;;;;;26.55;56.60;99547.00;5066550;28;20063;-60
2022/07/19 03:09:48;;;;;;;14.40;3.93;;;;;;;26.80;56.78;99542.84;5066226;28;20057;-59
2022/07/19 03:12:18;;;;;;;30.60;4.63;;;;;;;27.03;56.71;99552.22;5066257;28;20064;-57
2022/07/19 03:14:49;;;;;;;18.47;4.40;;;;;;;27.13;55.62;99538.72;5066777;28;20123;-58
2022/07/19 03:17:19;;;;;;;8.70;4.00;;;;;;;27.11;55.88;99535.38;5065494;28;20115;-59
2022/07/19 03:19:50;;;;;;;41.47;7.97;;;;;;;27.11;55.00;99538.91;5065347;28;20048;-58
2022/07/19 03:22:21;;;;;;;7.27;3.60;;;;;;;27.20;57.13;99533.66;5065227;28;20086;-59
2022/07/19 03:24:56;;;;;;;8.63;4.00;;;;;;;27.04;55.95;99524.41;5064889;28;20229;-58
2022/07/19 03:27:26;;;;;;;6.73;3.40;;;;;;;27.13;55.52;99548.63;5066558;28;20057;-59
2022/07/19 03:29:57;;;;;;;14.70;3.80;;;;;;;27.03;55.53;99541.50;5065830;28;20048;-59
2022/07/19 03:32:28;;;;;;;65.13;7.13;;;;;;;26.97;56.11;99552.78;5065662;28;20684;-60
2022/07/19 03:34:59;;;;;;;5.57;3.67;;;;;;;26.90;55.79;99554.38;5065368;28;20059;-59
2022/07/19 03:37:29;;;;;;;9.53;3.40;;;;;;;26.93;56.65;99554.06;5064572;28;20065;-58
2022/07/19 03:40:02;;;;;;;12.53;3.90;;;;;;;26.95;56.84;99557.44;5065594;28;20083;-58
2022/07/19 03:42:32;;;;;;;8.30;3.23;;;;;;;26.95;57.46;99554.75;5065137;28;20080;-58
2022/07/19 03:45:03;;;;;;;33.60;4.70;;;;;;;26.92;56.39;99554.22;5064908;28;20099;-59
2022/07/19 03:47:34;;;;;;;10.67;3.70;;;;;;;26.97;56.58;99560.81;5065123;28;20061;-58
2022/07/19 03:50:05;;;;;;;8.57;3.57;;;;;;;26.84;56.40;99528.16;5065570;28;20326;-58
2022/07/19 03:52:35;;;;;;;8.40;3.40;;;;;;;26.78;55.82;99529.56;5065773;28;20121;-59
2022/07/19 03:55:08;;;;;;;8.43;3.23;;;;;;;27.00;56.35;99557.00;5065713;28;20053;-58
2022/07/19 03:57:39;;;;;;;8.07;3.80;;;;;;;26.96;55.80;99564.50;5065522;28;20100;-58
2022/07/19 04:00:10;;;;;;;10.57;3.13;;;;;;;26.91;57.47;99553.38;5065170;28;20061;-58
2022/07/19 04:02:41;;;;;;;5.43;3.20;;;;;;;26.98;56.06;99559.81;5065207;28;20059;-59
2022/07/19 04:05:13;;;;;;;6.03;3.07;;;;;;;26.99;56.35;99558.00;5065147;28;20068;-58
2022/07/19 04:07:44;;;;;;;9.27;3.13;;;;;;;26.84;55.61;99538.88;5065308;28;20053;-58
2022/07/19 04:10:16;;;;;;;4.07;2.63;;;;;;;26.97;56.72;99563.50;5065094;28;20107;-58
2022/07/19 04:12:47;;;;;;;15.03;3.40;;;;;;;27.01;56.57;99556.88;5065289;28;20036;-59
2022/07/19 04:15:17;;;;;;;31.33;4.53;;;;;;;27.04;56.41;99564.63;5065347;28;20054;-59
2022/07/19 04:17:48;;;;;;;12.73;3.37;;;;;;;27.04;56.09;99572.66;5065209;28;20071;-59
2022/07/19 04:20:19;;;;;;;30.07;5.17;;;;;;;27.00;55.81;99565.88;5065431;28;20256;-61
2022/07/19 04:22:49;;;;;;;11.60;3.07;;;;;;;27.01;55.84;99578.31;5065226;28;20055;-59
2022/07/19 04:25:22;;;;;;;5.70;3.17;;;;;;;27.09;55.98;99570.38;5065276;28;20060;-59
2022/07/19 04:27:52;;;;;;;6.57;2.87;;;;;;;27.29;56.97;99576.53;5065092;28;20067;-59
2022/07/19 04:30:23;;;;;;;5.53;2.83;;;;;;;27.21;56.52;99551.44;5064568;28;20054;-60
2022/07/19 04:32:54;;;;;;;23.80;4.50;;;;;;;27.52;55.21;99576.09;5065247;28;20128;-59
2022/07/19 04:35:25;;;;;;;10.73;3.10;;;;;;;27.56;53.90;99571.28;5065011;28;20095;-60
2022/07/19 04:37:55;;;;;;;8.53;2.70;;;;;;;27.60;53.56;99575.34;5065226;28;20045;-59
2022/07/19 04:40:28;;;;;;;9.87;2.63;;;;;;;27.66;53.89;99572.91;5064279;28;20056;-59
2022/07/19 04:42:59;;;;;;;8.40;3.33;;;;;;;27.61;52.85;99575.22;5062391;28;20064;-59
2022/07/19 04:45:29;;;;;;;5.40;2.53;;;;;;;27.60;53.78;99572.66;5063460;28;20128;-59
2022/07/19 04:48:00;;;;;;;5.03;2.50;;;;;;;27.40;54.03;99583.50;5063816;28;20056;-59
2022/07/19 04:50:31;;;;;;;10.53;2.47;;;;;;;27.20;54.48;99581.94;5063093;28;20245;-59
2022/07/19 04:53:01;;;;;;;17.40;3.00;;;;;;;26.80;53.96;99575.00;5063630;28;20062;-59
2022/07/19 04:55:34;;;;;;;4.47;2.73;;;;;;;26.54;55.29;99583.69;5063212;28;20121;-59
2022/07/19 04:58:05;;;;;;;26.13;3.20;;;;;;;26.32;54.77;99583.97;5063999;28;20070;-59
2022/07/19 05:00:36;;;;;;;18.37;3.07;;;;;;;26.06;55.55;99586.34;5066960;28;20049;-59
2022/07/19 05:03:06;;;;;;;21.03;3.30;;;;;;;25.78;56.29;99587.00;5068150;28;20307;-59
2022/07/19 05:05:37;;;;;;;9.10;2.73;;;;;;;25.65;56.92;99589.13;5068314;28;20049;-58
2022/07/19 05:08:08;;;;;;;6.37;2.63;;;;;;;25.52;57.33;99591.22;5068886;28;20060;-59
2022/07/19 05:10:40;;;;;;;8.87;2.83;;;;;;;25.33;57.07;99584.81;5067225;28;20055;-59
2022/07/19 05:13:11;;;;;;;11.33;2.53;;;;;;;25.21;57.45;99596.63;5067951;28;20400;-58
2022/07/19 05:15:41;;;;;;;8.67;3.00;;;;;;;25.08;58.29;99590.59;5067430;28;20102;-58
2022/07/19 05:18:12;;;;;;;9.07;2.40;;;;;;;25.04;58.67;99589.19;5068521;28;20056;-60
2022/07/19 05:20:43;;;;;;;9.27;2.30;;;;;;;24.84;57.68;99598.94;5067678;28;20063;-59
2022/07/19 05:23:13;;;;;;;11.90;2.70;;;;;;;24.46;58.10;99595.03;5067605;28;20052;-59
2022/07/19 05:25:46;;;;;;;6.27;1.80;;;;;;;24.13;60.74;99566.69;5068409;28;20041;-60
2022/07/19 05:28:16;;;;;;;8.73;2.57;;;;;;;24.10;61.24;99600.66;5088883;22;20116;-78
2022/07/19 05:30:53;;;;;;;4.63;2.00;;;;;;;23.86;61.95;99608.00;5270533;23;20045;-60
2022/07/19 05:33:24;;;;;;;7.47;2.23;;;;;;;23.67;63.71;99598.81;5026647;28;20072;-60
2022/07/19 05:35:56;;;;;;;7.13;1.80;;;;;;;23.56;64.51;99595.31;5027384;28;20052;-60
2022/07/19 05:38:28;;;;;;;9.53;2.37;;;;;;;23.62;64.99;99601.03;5028112;28;20120;-59
2022/07/19 05:41:02;;;;;;;6.43;1.53;;;;;;;23.65;64.93;99595.44;5027410;28;20087;-60
2022/07/19 05:43:32;;;;;;;5.77;1.30;;;;;;;23.69;65.85;99602.22;5027726;28;20214;-60
2022/07/19 05:46:03;;;;;;;20.03;1.53;;;;;;;23.58;65.76;99599.56;5027788;28;20072;-61
2022/07/19 05:48:34;;;;;;;6.87;1.53;;;;;;;23.19;66.69;99599.16;5028125;28;20054;-59
2022/07/19 05:51:05;;;;;;;28.40;3.40;;;;;;;23.11;67.10;99577.56;5027984;28;20075;-59
2022/07/19 05:53:38;;;;;;;10.23;1.30;;;;;;;23.14;66.75;99612.00;5027675;28;20053;-60
2022/07/19 05:56:11;;;;;;;15.23;1.30;;;;;;;22.75;65.57;99607.94;5027487;28;20113;-60
2022/07/19 05:58:41;;;;;;;5.10;1.20;;;;;;;22.51;66.50;99615.97;5027139;28;20049;-60
2022/07/19 06:01:22;;;;;;;6.90;1.47;;;;;;;22.38;67.45;99608.91;5027566;28;20073;-59
2022/07/19 06:03:54;;;;;;;9.17;1.43;;;;;;;22.31;68.20;99601.53;5027594;28;20310;-60
2022/07/19 06:06:29;;;;;;;4.70;1.47;;;;;;;22.11;68.22;99592.34;5027521;28;20209;-60
2022/07/19 06:09:01;;;;;;;6.80;1.30;;;;;;;22.13;68.88;99614.38;5027199;28;20049;-59
2022/07/19 06:11:33;;;;;;;7.20;1.13;;;;;;;22.03;68.92;99605.38;5027665;28;20081;-60
2022/07/19 06:14:06;;;;;;;5.63;1.10;;;;;;;21.84;69.03;99620.06;5027435;28;20054;-59
2022/07/19 06:16:38;;;;;;;13.40;1.77;;;;;;;21.63;69.50;99616.28;5027219;28;20428;-59
2022/07/19 06:19:10;;;;;;;7.10;1.40;;;;;;;21.80;69.75;99596.44;5026733;28;20053;-59
2022/07/19 06:21:41;;;;;;;7.67;1.50;;;;;;;22.18;68.88;99617.53;5026524;28;20120;-60
2022/07/19 06:24:12;;;;;;;4.27;1.40;;;;;;;22.36;68.38;99621.50;5027120;28;20049;-60
2022/07/19 06:26:44;;;;;;;7.33;1.53;;;;;;;22.35;68.54;99617.16;5027256;28;20292;-59
2022/07/19 06:29:15;;;;;;;9.90;1.40;;;;;;;22.47;68.69;99617.19;5027181;28;20572;-59
2022/07/19 06:31:46;;;;;;;6.37;1.50;;;;;;;22.37;67.37;99625.03;5027487;28;20053;-59
2022/07/19 06:34:16;;;;;;;6.43;1.53;;;;;;;22.35;68.50;99619.81;5026581;28;20308;-59
2022/07/19 06:36:47;;;;;;;14.50;1.80;;;;;;;22.44;67.19;99625.38;5026523;28;20538;-59
2022/07/19 06:39:18;;;;;;;8.37;1.40;;;;;;;22.40;68.09;99617.66;5026473;28;21177;-59
2022/07/19 06:41:50;;;;;;;4.37;1.67;;;;;;;22.32;67.65;99609.41;5026483;28;20470;-59
2022/07/19 06:44:20;;;;;;;7.60;1.80;;;;;;;22.28;68.95;99613.25;5026607;28;20627;-59
2022/07/19 06:46:51;;;;;;;6.30;1.57;;;;;;;22.27;68.73;99622.22;5026436;28;20280;-60
2022/07/19 06:49:24;;;;;;;10.73;1.90;;;;;;;22.08;67.46;99627.16;5026944;28;20326;-60
2022/07/19 06:51:55;;;;;;;12.97;1.50;;;;;;;21.97;68.16;99622.66;5026347;28;20584;-59
2022/07/19 06:54:26;;;;;;;12.00;1.50;;;;;;;21.94;68.66;99626.38;5027069;28;20295;-60
2022/07/19 06:56:58;;;;;;;11.47;2.00;;;;;;;21.89;69.17;99623.22;5026129;28;20291;-59
2022/07/19 06:59:29;;;;;;;5.83;1.40;;;;;;;21.93;68.36;99634.47;5025948;28;20116;-60
2022/07/19 07:01:59;;;;;;;15.07;1.57;;;;;;;21.65;69.05;99635.66;5026455;28;20280;-60
2022/07/19 07:04:30;;;;;;;10.57;1.87;;;;;;;21.42;70.04;99640.81;5025759;28;20655;-60
2022/07/19 07:07:15;;;;;;;5.27;1.77;;;;;;;21.31;69.41;99636.19;5026662;28;20574;-60
2022/07/19 07:09:45;;;;;;;1.87;1.07;;;;;;;21.21;70.09;99636.97;5025996;28;20299;-60
2022/07/19 07:12:18;;;;;;;4.87;1.40;;;;;;;21.28;70.55;99638.22;5026424;28;20504;-62
2022/07/19 07:14:48;;;;;;;7.93;1.70;;;;;;;21.35;70.53;99639.50;5025587;28;20339;-60
2022/07/19 07:17:19;;;;;;;6.33;1.80;;;;;;;21.24;70.31;99636.75;5025887;28;20441;-60
2022/07/19 07:19:50;;;;;;;3.03;1.70;;;;;;;21.24;69.08;99652.69;5025301;28;20375;-59
2022/07/19 07:22:21;;;;;;;10.50;2.03;;;;;;;20.78;70.53;99598.31;5025081;28;20407;-59
2022/07/19 07:24:51;;;;;;;6.20;1.63;;;;;;;20.92;70.04;99650.50;5025819;28;20280;-60
2022/07/19 07:27:24;;;;;;;10.33;1.93;;;;;;;20.87;70.92;99644.66;5025194;28;20303;-60
2022/07/19 07:29:54;;;;;;;8.27;2.10;;;;;;;20.84;71.49;99634.22;5026064;28;20296;-59
2022/07/19 07:32:26;;;;;;;5.30;1.50;;;;;;;21.09;70.80;99638.66;5025167;28;20301;-60
2022/07/19 07:34:57;;;;;;;10.70;1.50;;;;;;;20.98;69.65;99641.25;5025113;28;20834;-59
2022/07/19 07:37:28;;;;;;;10.03;1.80;;;;;;;20.91;70.44;99640.81;5026036;28;20292;-60
2022/07/19 07:39:59;;;;;;;8.83;1.53;;;;;;;20.76;70.78;99641.88;5024671;28;20604;-60
2022/07/19 07:42:33;;;;;;;10.07;1.80;;;;;;;20.61;71.54;99633.97;5025583;28;20305;-60
2022/07/19 07:45:03;;;;;;;9.00;1.43;;;;;;;20.49;71.86;99634.78;5025894;28;20553;-60
2022/07/19 07:47:34;;;;;;;2.10;1.23;;;;;;;20.45;71.76;99638.63;5025738;28;20589;-61
2022/07/19 07:50:07;;;;;;;2.80;1.20;;;;;;;20.09;72.86;99631.28;5025665;28;20557;-59
2022/07/19 07:52:38;;;;;;;3.67;1.33;;;;;;;19.78;73.90;99650.03;5025116;28;20327;-59
2022/07/19 07:55:09;;;;;;;2.73;1.57;;;;;;;19.16;74.36;99578.88;5025373;28;20747;-59
2022/07/19 07:57:58;;;;;;;5.63;1.80;;;;;;;19.43;75.46;99651.41;5025123;28;20293;-59
2022/07/19 08:00:29;;;;;;;7.87;1.80;;;;;;;19.45;75.91;99655.66;5024422;28;20222;-59
2022/07/19 08:03:00;;;;;;;12.37;1.53;;;;;;;19.38;76.24;99659.66;5024923;28;20287;-59
2022/07/19 08:05:31;;;;;;;10.57;1.43;;;;;;;19.36;76.32;99627.94;5025004;28;20293;-59
2022/07/19 08:08:02;;;;;;;4.93;1.43;;;;;;;19.62;75.91;99659.91;5024097;28;20335;-60
2022/07/19 08:10:35;;;;;;;6.17;1.50;;;;;;;19.83;75.42;99661.19;5025079;28;20308;-61
2022/07/19 08:13:07;;;;;;;8.23;1.30;;;;;;;19.77;74.79;99627.16;5024698;28;20285;-60
2022/07/19 08:15:38;;;;;;;2.73;1.23;;;;;;;20.08;74.46;99664.91;5025347;28;20380;-60
2022/07/19 08:18:09;;;;;;;5.03;1.20;;;;;;;19.79;73.97;99672.97;5024822;28;20292;-58
2022/07/19 08:20:40;;;;;;;4.27;1.10;;;;;;;19.52;74.86;99674.66;5023891;28;20593;-58
2022/07/19 08:23:10;;;;;;;10.23;1.63;;;;;;;19.31;75.69;99675.06;5022959;28;20399;-58
2022/07/19 08:25:41;;;;;;;8.87;1.73;;;;;;;18.87;76.38;99615.09;5025422;28;20291;-58
2022/07/19 08:28:13;;;;;;;5.30;1.27;;;;;;;19.07;76.20;99673.91;5023469;28;20324;-58
2022/07/19 08:30:44;;;;;;;16.33;1.70;;;;;;;19.09;76.23;99682.63;5024111;28;20288;-58
2022/07/19 08:33:35;;;;;;;3.83;1.30;;;;;;;19.12;76.24;99678.00;5024390;28;20276;-61
2022/07/19 08:36:06;;;;;;;7.13;1.60;;;;;;;18.96;76.47;99693.94;5027523;28;20340;-59
2022/07/19 08:38:37;;;;;;;6.57;1.47;;;;;;;18.86;77.01;99690.16;5028125;28;20276;-59
2022/07/19 08:41:08;;;;;;;5.50;1.50;;;;;;;18.62;77.65;99683.63;5029861;28;20483;-59
2022/07/19 08:43:40;;;;;;;6.57;1.50;;;;;;;18.44;77.98;99702.28;5028515;28;20441;-59
2022/07/19 08:46:11;;;;;;;2.87;1.13;;;;;;;18.26;79.54;99703.34;5029167;28;20320;-59
2022/07/19 08:48:42;;;;;;;3.60;1.30;;;;;;;18.15;79.79;99701.31;5028489;28;20564;-59
2022/07/19 08:51:20;;;;;;;11.03;1.57;;;;;;;18.04;80.55;99701.91;5028578;28;20534;-60
2022/07/19 08:53:52;;;;;;;7.13;1.43;;;;;;;18.08;80.83;99710.53;5028269;28;20359;-60
2022/07/19 08:59:12;;;;;;;3.30;1.30;;;;;;;17.83;81.18;99705.78;5027980;28;20546;-59
2022/07/19 09:01:42;;;;;;;6.30;1.60;;;;;;;17.82;81.52;99714.63;5028178;28;20398;-60
2022/07/19 09:04:15;;;;;;;15.83;2.23;;;;;;;17.59;81.86;99692.91;5028289;28;20338;-59
2022/07/19 09:06:47;;;;;;;6.77;1.50;;;;;;;17.69;81.76;99709.97;5028634;28;20433;-59
2022/07/19 09:09:20;;;;;;;4.23;2.13;;;;;;;17.67;81.92;99716.28;5028154;28;20296;-59
2022/07/19 09:11:53;;;;;;;8.37;1.83;;;;;;;17.61;81.79;99701.63;5028049;28;20312;-59
2022/07/19 09:14:26;;;;;;;5.70;1.60;;;;;;;17.67;82.06;99717.16;5028353;28;20352;-61
2022/07/19 09:17:01;;;;;;;2.57;1.60;;;;;;;17.73;81.83;99715.09;5028393;28;20356;-59
2022/07/19 09:19:35;;;;;;;10.97;1.87;;;;;;;17.75;82.13;99723.81;5028592;28;20367;-60
2022/07/19 09:22:08;;;;;;;6.63;1.57;;;;;;;17.79;81.73;99717.41;5028389;28;20363;-60
2022/07/19 09:24:40;;;;;;;4.80;1.77;;;;;;;17.76;81.64;99712.28;5028161;28;20599;-60
2022/07/19 09:27:12;;;;;;;7.73;2.03;;;;;;;17.68;81.49;99712.72;5027714;28;20351;-60
2022/07/19 09:29:46;;;;;;;5.43;2.40;;;;;;;17.69;81.88;99725.81;5028081;28;20315;-60
2022/07/19 09:32:18;;;;;;;5.67;1.57;;;;;;;17.28;82.15;99666.47;5028189;28;20774;-60
2022/07/19 09:34:53;;;;;;;2.70;1.73;;;;;;;17.43;82.56;99715.81;5027608;28;20686;-60
2022/07/19 09:37:25;;;;;;;10.03;1.90;;;;;;;17.25;83.19;99723.78;5027774;28;20352;-59
2022/07/19 09:39:58;;;;;;;4.03;1.50;;;;;;;17.28;84.13;99735.13;5027892;28;20297;-59
2022/07/19 09:42:37;;;;;;;7.90;2.30;;;;;;;17.08;84.70;99736.16;5027668;28;20280;-59
2022/07/19 09:45:11;;;;;;;5.18;1.95;;;;;;;16.94;85.45;99737.69;5027466;28;20924;-60
2022/07/19 09:47:44;;;;;;;4.17;1.60;;;;;;;16.85;86.04;99724.13;5027548;28;20311;-60
2022/07/19 09:50:16;;;;;;;6.20;1.83;;;;;;;16.86;86.22;99733.75;5027865;28;20347;-58
2022/07/19 09:52:50;;;;;;;6.03;2.00;;;;;;;16.85;86.87;99732.03;5027513;28;20331;-58
2022/07/19 09:55:21;;;;;;;3.87;1.77;;;;;;;16.72;86.94;99735.25;5027555;28;20291;-60
2022/07/19 09:57:53;;;;;;;5.27;2.03;;;;;;;16.62;87.44;99752.47;5027610;28;20304;-60
2022/07/19 10:00:26;;;;;;;4.00;1.70;;;;;;;16.55;87.86;99751.09;5027486;28;20308;-60
2022/07/19 10:02:59;;;;;;;4.83;1.90;;;;;;;16.42;88.34;99744.69;5027472;28;20348;-59
2022/07/19 10:05:31;;;;;;;6.00;1.93;;;;;;;16.41;88.79;99748.28;5026712;28;20355;-59
2022/07/19 10:08:03;;;;;;;6.33;2.20;;;;;;;16.33;89.02;99746.84;5027771;28;20292;-59
2022/07/19 10:10:33;;;;;;;7.30;2.20;;;;;;;16.27;89.58;99752.41;5026955;28;20553;-59
2022/07/19 10:13:07;;;;;;;5.40;1.93;;;;;;;16.21;89.96;99752.72;5027522;28;20356;-59
2022/07/19 10:15:43;;;;;;;7.83;2.10;;;;;;;15.95;90.36;99736.38;5026796;28;20276;-59
2022/07/19 10:18:23;;;;;;;7.47;2.17;;;;;;;15.93;90.57;99738.22;5027275;28;20280;-59
2022/07/19 10:20:54;;;;;;;9.90;2.43;;;;;;;16.01;90.88;99761.56;5026816;28;20360;-60
2022/07/19 10:23:29;;;;;;;5.87;2.40;;;;;;;16.04;91.15;99771.09;5026536;28;20399;-59
2022/07/19 10:25:59;;;;;;;3.80;2.30;;;;;;;15.92;91.27;99767.25;5027030;28;20280;-60
2022/07/19 10:28:35;;;;;;;9.17;2.30;;;;;;;15.67;91.53;99725.34;5026348;28;20371;-59
2022/07/19 10:31:35;;;;;;;6.17;2.33;;;;;;;15.82;91.81;99766.81;5026463;28;20288;-59
2022/07/19 10:34:08;;;;;;;6.43;2.27;;;;;;;15.98;91.94;99797.75;5026289;28;20592;-59
2022/07/19 10:36:41;;;;;;;5.20;2.33;;;;;;;15.93;91.86;99790.91;5027017;28;20392;-59
2022/07/19 10:39:30;;;;;;;4.93;2.33;;;;;;;15.92;91.70;99794.44;5025875;28;20456;-60
2022/07/19 10:42:19;;;;;;;5.40;2.20;;;;;;;15.92;92.24;99802.34;5026778;28;20624;-59
2022/07/19 10:45:15;;;;;;;12.60;6.03;;;;;;;15.91;92.38;99802.44;5026283;28;20303;-59
2022/07/19 10:48:21;;;;;;;9.90;2.70;;;;;;;15.84;92.37;99807.13;5026200;28;20292;-60
2022/07/19 10:50:59;;;;;;;7.07;2.30;;;;;;;15.85;92.46;99798.31;5025935;28;20299;-60
2022/07/19 10:53:57;;;;;;;5.20;2.27;;;;;;;15.93;92.32;99812.00;5026809;28;20295;-59
2022/07/19 10:56:59;;;;;;;11.23;2.33;;;;;;;15.95;92.53;99811.94;5025630;28;20418;-59
2022/07/19 10:59:43;;;;;;;5.50;2.10;;;;;;;15.87;92.32;99806.97;5022721;28;20345;-60
2022/07/19 11:02:34;;;;;;;5.53;2.00;;;;;;;15.90;92.47;99811.25;5026202;28;20430;-61
2022/07/19 11:05:25;;;;;;;11.83;2.30;;;;;;;15.84;92.33;99807.13;5026521;28;20293;-59
2022/07/19 11:07:58;;;;;;;2.87;1.73;;;;;;;15.73;92.55;99794.44;5026057;28;20972;-59
2022/07/19 11:10:30;;;;;;;5.00;2.00;;;;;;;15.86;92.72;99823.72;5026363;28;20326;-59
2022/07/19 11:13:01;;;;;;;5.57;2.00;;;;;;;15.82;92.70;99808.97;5026387;28;20439;-60
2022/07/19 11:15:32;;;;;;;3.83;2.33;;;;;;;15.78;92.87;99812.69;5026301;28;20312;-59
2022/07/19 11:18:09;;;;;;;4.83;2.00;;;;;;;15.68;93.01;99808.72;5026089;28;20319;-59
2022/07/19 11:20:41;;;;;;;5.33;1.93;;;;;;;15.70;93.57;99809.53;5024192;28;20568;-59
2022/07/19 11:23:18;;;;;;;7.67;1.93;;;;;;;15.73;93.44;99810.25;5024039;28;20285;-59
2022/07/19 11:25:51;;;;;;;4.47;1.73;;;;;;;15.68;93.52;99824.53;5025226;28;20668;-60
2022/07/19 11:28:25;;;;;;;3.77;1.73;;;;;;;15.32;93.61;99764.66;5024705;28;20286;-59
2022/07/19 11:30:56;;;;;;;6.03;2.00;;;;;;;15.64;93.66;99820.31;5025860;28;20567;-60
2022/07/19 11:33:26;;;;;;;5.67;2.10;;;;;;;15.62;94.02;99817.72;5026704;28;20600;-60
2022/07/19 11:36:00;;;;;;;13.00;2.57;;;;;;;15.42;94.02;99794.91;5025451;28;20281;-59
2022/07/19 11:38:39;;;;;;;7.53;1.90;;;;;;;15.53;94.27;99824.28;5035041;28;20588;-59
2022/07/19 11:41:16;;;;;;;7.03;1.98;;;;;;;15.43;94.46;99804.53;5037607;28;20311;-60
2022/07/19 11:43:52;;;;;;;14.57;2.60;;;;;;;15.43;95.03;99822.97;5037841;28;20139;-59
2022/07/19 11:46:26;;;;;;;6.23;1.87;;;;;;;15.40;95.27;99817.84;5038651;28;20338;-60
2022/07/19 11:48:58;;;;;;;6.03;1.80;;;;;;;15.41;95.60;99819.53;5039154;28;20284;-60
2022/07/19 11:51:31;;;;;;;7.43;2.40;;;;;;;15.20;95.55;99783.59;5038465;28;20395;-60
2022/07/19 11:54:03;;;;;;;5.37;2.00;;;;;;;15.35;95.79;99798.75;5039017;28;20294;-60
2022/07/19 11:56:36;;;;;;;7.90;2.33;;;;;;;15.41;95.71;99814.28;5038845;28;20284;-60
2022/07/19 11:59:09;;;;;;;4.77;2.20;;;;;;;15.39;95.92;99815.25;5039362;28;20568;-59